createdAt,value
2016-08-30T00:00:21.241Z,12.76
2016-08-30T00:01:20.917Z,12.8
2016-08-30T00:02:17.102Z,12.71
2016-08-30T00:03:16.750Z,12.65
2016-08-30T00:04:16.796Z,12.65
2016-08-30T00:05:17.060Z,12.59
2016-08-30T00:06:16.648Z,12.62
2016-08-30T00:07:16.586Z,12.59
2016-08-30T00:08:16.584Z,12.56
2016-08-30T00:09:16.600Z,12.44
2016-08-30T00:10:16.584Z,12.55
2016-08-30T00:11:16.659Z,12.53
2016-08-30T00:12:16.714Z,12.52
2016-08-30T00:13:16.734Z,12.44
2016-08-30T00:14:16.670Z,12.47
2016-08-30T00:15:16.830Z,12.44
2016-08-30T00:16:16.583Z,12.45
2016-08-30T00:17:16.673Z,12.38
2016-08-30T00:18:16.662Z,12.43
2016-08-30T00:19:16.586Z,12.41
2016-08-30T00:20:16.770Z,12.34
2016-08-30T00:21:16.680Z,12.37
2016-08-30T00:22:16.669Z,12.33
2016-08-30T00:23:16.661Z,12.33
2016-08-30T00:24:16.750Z,12.37
2016-08-30T00:25:16.687Z,12.28
2016-08-30T00:26:16.675Z,12.43
2016-08-30T00:27:16.668Z,12.37
2016-08-30T00:28:16.685Z,12.29
2016-08-30T00:29:16.675Z,12.16
2016-08-30T00:30:16.689Z,12.2
2016-08-30T00:31:16.600Z,12.1
2016-08-30T00:32:16.604Z,12.16
2016-08-30T00:33:16.686Z,12.16
2016-08-30T00:34:16.682Z,12.18
2016-08-30T00:35:16.677Z,12.03
2016-08-30T00:36:16.624Z,12.08
2016-08-30T00:37:16.687Z,12.18
2016-08-30T00:38:16.697Z,12.2
2016-08-30T00:39:16.615Z,12.22
2016-08-30T00:40:16.685Z,12.19
2016-08-30T00:41:16.711Z,12.31
2016-08-30T00:42:16.683Z,12.19
2016-08-30T00:43:16.706Z,12.29
2016-08-30T00:44:16.703Z,12.29
2016-08-30T00:45:16.709Z,12.37
2016-08-30T00:46:16.709Z,12.41
2016-08-30T00:47:16.622Z,12.28
2016-08-30T00:48:16.682Z,12.31
2016-08-30T00:49:16.785Z,12.34
2016-08-30T00:50:16.640Z,12.26
2016-08-30T00:51:16.805Z,12.37
2016-08-30T00:52:16.649Z,12.26
2016-08-30T00:53:16.711Z,12.31
2016-08-30T00:54:16.704Z,12.23
2016-08-30T00:55:16.729Z,12.29
2016-08-30T00:56:16.804Z,12.2
2016-08-30T00:57:16.641Z,12.23
2016-08-30T00:58:16.808Z,12.11
2016-08-30T00:59:16.730Z,12.22
2016-08-30T01:00:17.027Z,12.18
2016-08-30T01:01:16.717Z,12.2
2016-08-30T01:02:16.729Z,12.16
2016-08-30T01:03:16.724Z,12.19
2016-08-30T01:04:16.747Z,12.22
2016-08-30T01:05:16.836Z,12.2
2016-08-30T01:06:16.826Z,12.18
2016-08-30T01:07:16.817Z,12.23
2016-08-30T01:08:16.774Z,12.07
2016-08-30T01:09:16.825Z,12.05
2016-08-30T01:10:16.771Z,12.18
2016-08-30T01:11:16.751Z,12.11
2016-08-30T01:12:16.839Z,12.1
2016-08-30T01:13:16.749Z,12.2
2016-08-30T01:14:16.810Z,12.11
2016-08-30T01:15:16.736Z,12.08
2016-08-30T01:16:16.747Z,12.04
2016-08-30T01:17:16.664Z,12.03
2016-08-30T01:18:16.673Z,12.05
2016-08-30T01:19:16.822Z,12.03
2016-08-30T01:20:16.763Z,12
2016-08-30T01:21:16.864Z,12.05
2016-08-30T01:22:16.751Z,12.03
2016-08-30T01:23:16.751Z,12.03
2016-08-30T01:24:16.774Z,12.07
2016-08-30T01:25:16.761Z,12.1
2016-08-30T01:26:16.762Z,12
2016-08-30T01:27:16.774Z,12.07
2016-08-30T01:28:16.824Z,12.03
2016-08-30T01:29:16.762Z,12
2016-08-30T01:30:16.678Z,12.04
2016-08-30T01:31:16.775Z,11.95
2016-08-30T01:32:16.786Z,12.04
2016-08-30T01:33:16.776Z,12.05
2016-08-30T01:34:16.769Z,12.22
2016-08-30T01:35:16.699Z,12.2
2016-08-30T01:36:16.772Z,12.22
2016-08-30T01:37:16.738Z,12.23
2016-08-30T01:38:16.779Z,12.08
2016-08-30T01:39:16.786Z,12.18
2016-08-30T01:40:16.728Z,12.15
2016-08-30T01:41:16.717Z,12.2
2016-08-30T01:42:16.858Z,12.22
2016-08-30T01:43:16.857Z,12.25
2016-08-30T01:44:16.888Z,12.36
2016-08-30T01:45:16.724Z,12.25
2016-08-30T01:46:17.381Z,12.16
2016-08-30T01:47:16.917Z,12.03
2016-08-30T01:48:16.817Z,12.11
2016-08-30T01:49:16.884Z,12.03
2016-08-30T01:50:17.417Z,11.98
2016-08-30T01:51:16.791Z,11.86
2016-08-30T01:52:16.721Z,11.88
2016-08-30T01:53:16.825Z,11.82
2016-08-30T01:54:16.791Z,11.71
2016-08-30T01:55:16.790Z,11.64
2016-08-30T01:56:16.818Z,11.67
2016-08-30T01:57:16.882Z,11.64
2016-08-30T01:58:16.812Z,11.52
2016-08-30T01:59:16.880Z,11.52
2016-08-30T02:00:16.806Z,11.59
2016-08-30T02:01:16.832Z,11.63
2016-08-30T02:02:16.745Z,11.6
2016-08-30T02:03:16.807Z,11.52
2016-08-30T02:04:16.738Z,11.49
2016-08-30T02:05:16.800Z,11.53
2016-08-30T02:06:16.723Z,11.52
2016-08-30T02:07:16.902Z,11.51
2016-08-30T02:08:16.807Z,11.49
2016-08-30T02:09:16.837Z,11.52
2016-08-30T02:10:17.024Z,11.41
2016-08-30T02:11:16.819Z,11.42
2016-08-30T02:12:16.909Z,11.39
2016-08-30T02:13:16.827Z,11.39
2016-08-30T02:14:16.922Z,11.45
2016-08-30T02:15:16.921Z,11.49
2016-08-30T02:16:16.835Z,11.56
2016-08-30T02:17:16.815Z,11.51
2016-08-30T02:18:16.764Z,11.51
2016-08-30T02:19:16.917Z,11.52
2016-08-30T02:20:16.753Z,11.49
2016-08-30T02:21:16.913Z,11.59
2016-08-30T02:22:16.826Z,11.49
2016-08-30T02:23:16.909Z,11.49
2016-08-30T02:24:16.918Z,11.33
2016-08-30T02:25:16.761Z,11.38
2016-08-30T02:26:16.838Z,11.48
2016-08-30T02:27:16.773Z,11.41
2016-08-30T02:28:16.854Z,11.43
2016-08-30T02:29:16.754Z,11.31
2016-08-30T02:30:16.778Z,11.35
2016-08-30T02:31:16.798Z,11.41
2016-08-30T02:32:16.849Z,11.38
2016-08-30T02:33:16.937Z,11.28
2016-08-30T02:34:16.866Z,11.33
2016-08-30T02:35:16.847Z,11.41
2016-08-30T02:36:16.955Z,11.3
2016-08-30T02:37:16.783Z,11.21
2016-08-30T02:38:16.868Z,11.31
2016-08-30T02:39:16.941Z,11.2
2016-08-30T02:40:16.864Z,11.24
2016-08-30T02:41:16.873Z,11.2
2016-08-30T02:42:16.868Z,11.18
2016-08-30T02:43:16.951Z,11.18
2016-08-30T02:44:16.869Z,11.18
2016-08-30T02:45:16.943Z,11.12
2016-08-30T02:46:16.955Z,11.12
2016-08-30T02:47:16.937Z,11.09
2016-08-30T02:48:16.897Z,11.18
2016-08-30T02:49:16.854Z,11.16
2016-08-30T02:50:16.928Z,11.15
2016-08-30T02:51:16.886Z,11.08
2016-08-30T02:52:16.813Z,10.97
2016-08-30T02:53:16.799Z,11
2016-08-30T02:54:16.881Z,11.09
2016-08-30T02:55:16.968Z,11.06
2016-08-30T02:56:16.909Z,11.03
2016-08-30T02:57:16.965Z,11.05
2016-08-30T02:58:16.883Z,11.08
2016-08-30T02:59:16.957Z,11
2016-08-30T03:00:16.814Z,10.97
2016-08-30T03:01:16.947Z,11.02
2016-08-30T03:02:16.884Z,10.98
2016-08-30T03:03:16.893Z,10.98
2016-08-30T03:04:16.949Z,10.95
2016-08-30T03:05:16.915Z,11
2016-08-30T03:06:16.966Z,10.95
2016-08-30T03:07:16.966Z,10.95
2016-08-30T03:08:16.806Z,10.83
2016-08-30T03:09:16.972Z,10.75
2016-08-30T03:10:16.911Z,10.75
2016-08-30T03:11:16.895Z,10.7
2016-08-30T03:12:16.903Z,10.63
2016-08-30T03:13:16.936Z,10.66
2016-08-30T03:14:16.908Z,10.61
2016-08-30T03:15:17.463Z,10.75
2016-08-30T03:16:16.976Z,10.76
2016-08-30T03:17:16.904Z,10.79
2016-08-30T03:18:17.004Z,10.85
2016-08-30T03:19:16.909Z,10.76
2016-08-30T03:20:16.843Z,10.76
2016-08-30T03:21:16.918Z,10.85
2016-08-30T03:22:16.888Z,10.83
2016-08-30T03:23:16.842Z,10.84
2016-08-30T03:24:16.924Z,10.85
2016-08-30T03:25:17.011Z,10.85
2016-08-30T03:26:17.006Z,10.8
2016-08-30T03:27:16.905Z,10.87
2016-08-30T03:28:17.032Z,10.88
2016-08-30T03:29:16.920Z,10.75
2016-08-30T03:30:16.920Z,10.8
2016-08-30T03:31:16.854Z,10.8
2016-08-30T03:32:16.823Z,10.83
2016-08-30T03:33:16.929Z,10.77
2016-08-30T03:34:16.845Z,10.76
2016-08-30T03:35:17.045Z,10.77
2016-08-30T03:36:17.037Z,10.72
2016-08-30T03:37:17.029Z,10.72
2016-08-30T03:38:17.020Z,10.7
2016-08-30T03:39:16.883Z,10.7
2016-08-30T03:40:17.027Z,10.59
2016-08-30T03:41:16.859Z,10.58
2016-08-30T03:42:16.969Z,10.59
2016-08-30T03:43:16.931Z,10.49
2016-08-30T03:44:16.949Z,10.42
2016-08-30T03:45:16.849Z,10.61
2016-08-30T03:46:17.037Z,10.58
2016-08-30T03:47:16.940Z,10.58
2016-08-30T03:48:16.856Z,10.54
2016-08-30T03:49:17.041Z,10.49
2016-08-30T03:50:16.856Z,10.57
2016-08-30T03:51:16.947Z,10.52
2016-08-30T03:52:16.879Z,10.51
2016-08-30T03:53:16.946Z,10.46
2016-08-30T03:54:17.041Z,10.38
2016-08-30T03:55:16.871Z,10.51
2016-08-30T03:56:16.868Z,10.44
2016-08-30T03:57:16.957Z,10.33
2016-08-30T03:58:16.947Z,10.52
2016-08-30T03:59:16.958Z,10.41
2016-08-30T04:00:16.970Z,10.39
2016-08-30T04:01:17.041Z,10.44
2016-08-30T04:02:16.872Z,10.47
2016-08-30T04:03:16.897Z,10.46
2016-08-30T04:04:17.003Z,10.32
2016-08-30T04:05:17.062Z,10.46
2016-08-30T04:06:17.062Z,10.52
2016-08-30T04:07:16.981Z,10.58
2016-08-30T04:08:16.904Z,10.7
2016-08-30T04:09:16.979Z,10.75
2016-08-30T04:10:16.883Z,10.87
2016-08-30T04:11:16.994Z,10.94
2016-08-30T04:12:16.992Z,10.88
2016-08-30T04:13:17.283Z,10.67
2016-08-30T04:14:17.068Z,10.67
2016-08-30T04:15:16.898Z,10.61
2016-08-30T04:16:16.909Z,10.63
2016-08-30T04:17:16.988Z,10.59
2016-08-30T04:18:16.996Z,10.63
2016-08-30T04:19:16.897Z,10.59
2016-08-30T04:20:16.988Z,10.58
2016-08-30T04:21:16.908Z,10.57
2016-08-30T04:22:16.921Z,10.63
2016-08-30T04:23:17.074Z,10.63
2016-08-30T04:24:16.990Z,10.61
2016-08-30T04:25:16.996Z,10.55
2016-08-30T04:26:17.066Z,10.57
2016-08-30T04:27:16.901Z,10.51
2016-08-30T04:28:16.985Z,10.58
2016-08-30T04:29:16.905Z,10.61
2016-08-30T04:30:17.133Z,10.63
2016-08-30T04:31:17.666Z,10.55
2016-08-30T04:32:17.018Z,10.59
2016-08-30T04:33:17.015Z,10.55
2016-08-30T04:34:17.094Z,10.57
2016-08-30T04:35:16.995Z,10.59
2016-08-30T04:36:16.932Z,10.55
2016-08-30T04:37:17.014Z,10.59
2016-08-30T04:38:17.099Z,10.55
2016-08-30T04:39:16.999Z,10.54
2016-08-30T04:40:17.027Z,10.57
2016-08-30T04:41:16.996Z,10.52
2016-08-30T04:42:17.013Z,10.49
2016-08-30T04:43:17.013Z,10.47
2016-08-30T04:44:17.015Z,10.46
2016-08-30T04:45:17.099Z,10.49
2016-08-30T04:46:17.108Z,10.38
2016-08-30T04:47:17.005Z,10.47
2016-08-30T04:48:17.024Z,10.55
2016-08-30T04:49:17.050Z,10.46
2016-08-30T04:50:16.946Z,10.47
2016-08-30T04:51:16.947Z,10.41
2016-08-30T04:52:17.036Z,10.46
2016-08-30T04:53:17.108Z,10.42
2016-08-30T04:54:17.111Z,10.36
2016-08-30T04:55:17.035Z,10.42
2016-08-30T04:56:17.114Z,10.35
2016-08-30T04:57:17.025Z,10.42
2016-08-30T04:58:17.110Z,10.38
2016-08-30T04:59:17.031Z,10.36
2016-08-30T05:00:17.060Z,10.33
2016-08-30T05:01:17.130Z,10.36
2016-08-30T05:02:17.045Z,10.29
2016-08-30T05:03:17.108Z,10.28
2016-08-30T05:04:16.951Z,10.26
2016-08-30T05:05:17.047Z,10.35
2016-08-30T05:06:17.045Z,10.28
2016-08-30T05:07:16.983Z,10.32
2016-08-30T05:08:16.971Z,10.32
2016-08-30T05:09:16.969Z,10.44
2016-08-30T05:10:17.051Z,10.44
2016-08-30T05:11:17.045Z,10.57
2016-08-30T05:12:16.969Z,10.55
2016-08-30T05:13:17.139Z,10.59
2016-08-30T05:14:17.137Z,10.52
2016-08-30T05:15:17.057Z,10.46
2016-08-30T05:16:17.128Z,10.57
2016-08-30T05:17:17.140Z,10.59
2016-08-30T05:18:17.146Z,10.55
2016-08-30T05:19:17.078Z,10.57
2016-08-30T05:20:17.062Z,10.54
2016-08-30T05:21:17.131Z,10.52
2016-08-30T05:22:17.055Z,10.63
2016-08-30T05:23:17.066Z,10.66
2016-08-30T05:24:17.061Z,10.67
2016-08-30T05:25:17.060Z,10.7
2016-08-30T05:26:17.090Z,10.69
2016-08-30T05:27:17.093Z,10.77
2016-08-30T05:28:17.078Z,10.8
2016-08-30T05:29:17.161Z,10.85
2016-08-30T05:30:16.996Z,10.87
2016-08-30T05:31:17.071Z,10.95
2016-08-30T05:32:17.078Z,11
2016-08-30T05:33:17.003Z,11.12
2016-08-30T05:34:17.070Z,11.03
2016-08-30T05:35:17.083Z,11.02
2016-08-30T05:36:17.100Z,11.23
2016-08-30T05:37:17.184Z,11.28
2016-08-30T05:38:17.192Z,11.43
2016-08-30T05:39:17.160Z,11.57
2016-08-30T05:40:17.206Z,11.64
2016-08-30T05:41:17.130Z,11.85
2016-08-30T05:42:17.104Z,12.03
2016-08-30T05:43:17.362Z,12.19
2016-08-30T05:44:17.088Z,12.28
2016-08-30T05:45:17.022Z,12.37
2016-08-30T05:46:17.021Z,12.52
2016-08-30T05:47:17.102Z,12.58
2016-08-30T05:48:18.058Z,12.71
2016-08-30T05:49:17.217Z,12.86
2016-08-30T05:50:17.330Z,13.03
2016-08-30T05:51:17.181Z,13.16
2016-08-30T05:52:17.103Z,13.29
2016-08-30T05:53:17.098Z,13.31
2016-08-30T05:57:17.114Z,13.7
2016-08-30T05:58:18.537Z,13.78
2016-08-30T05:59:17.711Z,13.87
2016-08-30T06:00:19.885Z,13.91
2016-08-30T06:01:40.981Z,13.94
2016-08-30T06:02:17.119Z,14.05
2016-08-30T06:03:17.133Z,13.99
2016-08-30T06:04:17.031Z,14.02
2016-08-30T06:05:17.546Z,14.11
2016-08-30T06:06:17.133Z,14.13
2016-08-30T06:07:17.264Z,14.36
2016-08-30T06:08:17.188Z,14.34
2016-08-30T06:09:17.173Z,14.42
2016-08-30T06:10:38.570Z,14.39
2016-08-30T06:11:17.142Z,14.38
2016-08-30T06:12:17.033Z,14.41
2016-08-30T06:13:17.132Z,14.45
2016-08-30T06:14:17.276Z,14.42
2016-08-30T06:15:20.886Z,14.49
2016-08-30T06:16:17.146Z,14.57
2016-08-30T06:17:17.124Z,14.63
2016-08-30T06:18:17.220Z,14.7
2016-08-30T06:19:17.121Z,14.63
2016-08-30T06:20:24.803Z,14.66
2016-08-30T06:21:17.142Z,14.79
2016-08-30T06:22:17.143Z,14.71
2016-08-30T06:23:17.066Z,14.89
2016-08-30T06:24:17.055Z,15.02
2016-08-30T06:25:17.169Z,15.1
2016-08-30T06:26:17.132Z,15.18
2016-08-30T06:27:17.202Z,15.19
2016-08-30T06:28:17.147Z,15.35
2016-08-30T06:29:17.069Z,15.35
2016-08-30T06:30:17.145Z,15.37
2016-08-30T06:31:17.220Z,15.4
2016-08-30T06:32:17.167Z,15.53
2016-08-30T06:33:17.209Z,15.6
2016-08-30T06:34:17.151Z,15.78
2016-08-30T06:35:17.178Z,15.83
2016-08-30T06:36:17.152Z,15.88
2016-08-30T06:37:18.297Z,15.92
2016-08-30T06:38:17.098Z,16.02
2016-08-30T06:39:17.231Z,16
2016-08-30T06:40:17.153Z,16.1
2016-08-30T06:41:17.232Z,16.34
2016-08-30T06:42:17.255Z,16.67
2016-08-30T06:43:17.176Z,16.76
2016-08-30T06:44:17.172Z,16.94
2016-08-30T06:45:17.168Z,16.95
2016-08-30T06:46:17.090Z,17.07
2016-08-30T06:47:17.169Z,17.28
2016-08-30T06:48:17.094Z,17.49
2016-08-30T06:49:17.173Z,17.71
2016-08-30T06:50:17.172Z,17.79
2016-08-30T06:51:17.181Z,17.96
2016-08-30T06:52:17.105Z,18.21
2016-08-30T06:53:17.274Z,18.24
2016-08-30T06:54:17.193Z,18.24
2016-08-30T06:55:17.256Z,18.2
2016-08-30T06:56:17.258Z,18.56
2016-08-30T06:57:17.103Z,18.61
2016-08-30T06:58:17.214Z,18.74
2016-08-30T06:59:17.188Z,18.76
2016-08-30T07:00:17.203Z,18.68
2016-08-30T07:01:17.212Z,18.75
2016-08-30T07:02:17.264Z,18.57
2016-08-30T07:03:17.208Z,18.5
2016-08-30T07:04:17.148Z,18.69
2016-08-30T07:05:17.116Z,18.97
2016-08-30T07:06:17.197Z,18.9
2016-08-30T07:07:17.236Z,18.94
2016-08-30T07:08:17.198Z,19.12
2016-08-30T07:09:17.251Z,19.43
2016-08-30T07:10:17.135Z,19.47
2016-08-30T07:11:17.230Z,19.68
2016-08-30T07:12:17.303Z,19.67
2016-08-30T07:13:17.278Z,19.72
2016-08-30T07:14:17.326Z,19.85
2016-08-30T07:15:20.214Z,19.89
2016-08-30T07:16:17.728Z,19.86
2016-08-30T07:17:17.146Z,20
2016-08-30T07:18:17.219Z,19.97
2016-08-30T07:19:17.226Z,19.5
2016-08-30T07:20:19.778Z,19.23
2016-08-30T07:21:17.283Z,19.47
2016-08-30T07:22:17.167Z,19.71
2016-08-30T07:23:17.205Z,19.86
2016-08-30T07:24:17.298Z,19.55
2016-08-30T07:25:17.307Z,19.56
2016-08-30T07:26:18.419Z,19.83
2016-08-30T07:27:17.301Z,19.89
2016-08-30T07:28:17.303Z,20.1
2016-08-30T07:29:17.242Z,20.11
2016-08-30T07:30:17.233Z,20.22
2016-08-30T07:31:17.398Z,20.54
2016-08-30T07:32:17.256Z,20.78
2016-08-30T07:33:17.233Z,20.51
2016-08-30T07:34:17.164Z,20.27
2016-08-30T07:35:17.174Z,20.6
2016-08-30T07:36:17.180Z,20.81
2016-08-30T07:37:17.164Z,20.79
2016-08-30T07:38:17.276Z,20.98
2016-08-30T07:39:17.344Z,20.41
2016-08-30T07:40:17.371Z,20.4
2016-08-30T07:41:17.186Z,20.53
2016-08-30T07:42:17.169Z,20.53
2016-08-30T07:43:17.258Z,20.58
2016-08-30T07:44:17.178Z,20.74
2016-08-30T07:45:17.177Z,20.78
2016-08-30T07:46:17.260Z,20.86
2016-08-30T07:47:17.191Z,20.57
2016-08-30T07:48:17.356Z,20.51
2016-08-30T07:49:17.381Z,20.68
2016-08-30T07:50:17.289Z,21.09
2016-08-30T07:51:31.408Z,21.3
2016-08-30T07:52:36.634Z,21.49
2016-08-30T07:53:17.261Z,21.67
2016-08-30T07:54:17.260Z,21.89
2016-08-30T07:55:17.290Z,21.8
2016-08-30T07:56:17.349Z,21.85
2016-08-30T07:57:17.278Z,21.97
2016-08-30T07:58:17.354Z,22.05
2016-08-30T07:59:17.271Z,22.18
2016-08-30T08:00:17.463Z,21.89
2016-08-30T08:01:17.204Z,22.18
2016-08-30T08:02:17.267Z,22.41
2016-08-30T08:03:17.195Z,22.11
2016-08-30T08:04:17.361Z,22.23
2016-08-30T08:05:17.688Z,22.7
2016-08-30T08:06:17.357Z,22.86
2016-08-30T08:07:17.284Z,22.76
2016-08-30T08:08:17.248Z,22.66
2016-08-30T08:09:17.222Z,22.67
2016-08-30T08:10:17.289Z,22.36
2016-08-30T08:11:17.368Z,22.2
2016-08-30T08:12:17.408Z,22.04
2016-08-30T08:13:17.404Z,21.71
2016-08-30T08:14:17.312Z,21.64
2016-08-30T08:15:17.391Z,21.99
2016-08-30T08:16:17.349Z,22.2
2016-08-30T08:17:17.401Z,22.49
2016-08-30T08:18:17.372Z,22.89
2016-08-30T08:19:17.292Z,22.75
2016-08-30T08:20:17.230Z,22.79
2016-08-30T08:21:17.233Z,22.76
2016-08-30T08:22:17.379Z,22.78
2016-08-30T08:23:17.330Z,22.16
2016-08-30T08:24:17.387Z,21.99
2016-08-30T08:25:17.316Z,21.74
2016-08-30T08:26:17.399Z,21.74
2016-08-30T08:27:17.338Z,21.74
2016-08-30T08:28:17.340Z,22.23
2016-08-30T08:29:17.240Z,22.45
2016-08-30T08:30:17.404Z,22.67
2016-08-30T08:31:17.328Z,22.91
2016-08-30T08:32:17.426Z,23.15
2016-08-30T08:33:17.318Z,23.45
2016-08-30T08:34:17.419Z,23.99
2016-08-30T08:35:17.401Z,24.04
2016-08-30T08:36:17.337Z,23.96
2016-08-30T08:37:17.435Z,23.84
2016-08-30T08:38:17.382Z,23.44
2016-08-30T08:39:18.356Z,23.41
2016-08-30T08:40:17.265Z,23.84
2016-08-30T08:42:17.705Z,24.09
2016-08-30T08:43:17.388Z,24.12
2016-08-30T08:44:19.047Z,23.7
2016-08-30T08:45:19.846Z,23.14
2016-08-30T08:46:17.456Z,22.91
2016-08-30T08:47:17.458Z,22.81
2016-08-30T08:48:17.332Z,22.54
2016-08-30T08:49:17.474Z,22.79
2016-08-30T08:50:17.754Z,22.92
2016-08-30T08:51:17.696Z,22.73
2016-08-30T08:52:17.589Z,22.81
2016-08-30T08:53:17.410Z,22.92
2016-08-30T08:54:17.382Z,22.99
2016-08-30T08:55:20.250Z,22.84
2016-08-30T08:56:17.410Z,22.73
2016-08-30T08:57:17.376Z,22.85
2016-08-30T08:58:17.532Z,22.64
2016-08-30T08:59:17.394Z,22.44
2016-08-30T09:00:18.288Z,22.66
2016-08-30T09:01:17.475Z,22.97
2016-08-30T09:02:18.049Z,22.76
2016-08-30T09:03:17.552Z,22.69
2016-08-30T09:04:17.475Z,22.84
2016-08-30T09:05:18.552Z,22.6
2016-08-30T09:06:17.471Z,22.84
2016-08-30T09:07:17.531Z,23.12
2016-08-30T09:08:17.386Z,23.09
2016-08-30T09:09:17.336Z,23.07
2016-08-30T09:10:18.484Z,23.04
2016-08-30T09:11:18.985Z,22.89
2016-08-30T09:12:17.379Z,23.01
2016-08-30T09:13:17.315Z,22.96
2016-08-30T09:14:17.461Z,22.84
2016-08-30T09:15:17.625Z,23.14
2016-08-30T09:16:17.310Z,23.24
2016-08-30T09:17:17.466Z,23.63
2016-08-30T09:18:17.417Z,24.21
2016-08-30T09:19:18.275Z,24.49
2016-08-30T09:20:17.480Z,24.44
2016-08-30T09:21:17.472Z,25.01
2016-08-30T09:22:17.348Z,25.3
2016-08-30T09:23:18.468Z,25.45
2016-08-30T09:24:17.518Z,25.64
2016-08-30T09:25:17.420Z,25.89
2016-08-30T09:26:17.418Z,25.69
2016-08-30T09:27:17.543Z,25.85
2016-08-30T09:28:17.493Z,24.92
2016-08-30T09:29:17.437Z,24.75
2016-08-30T09:30:17.503Z,24.4
2016-08-30T09:31:17.436Z,24.24
2016-08-30T09:32:17.361Z,24.33
2016-08-30T09:33:17.592Z,24.33
2016-08-30T09:34:17.468Z,24.52
2016-08-30T09:35:17.425Z,24.7
2016-08-30T09:36:17.342Z,24.67
2016-08-30T09:37:17.425Z,24.78
2016-08-30T09:38:17.383Z,24.51
2016-08-30T09:39:17.429Z,24.15
2016-08-30T09:40:17.470Z,23.84
2016-08-30T09:41:17.357Z,24.24
2016-08-30T09:42:17.506Z,24.71
2016-08-30T09:43:17.486Z,25.33
2016-08-30T09:44:17.587Z,25.86
2016-08-30T09:45:17.529Z,25.34
2016-08-30T09:46:17.369Z,25.24
2016-08-30T09:47:17.436Z,25.26
2016-08-30T09:48:17.560Z,24.8
2016-08-30T09:49:17.503Z,24.56
2016-08-30T09:50:17.789Z,24.07
2016-08-30T09:51:17.455Z,24.63
2016-08-30T09:52:17.367Z,24.97
2016-08-30T09:53:17.448Z,24.63
2016-08-30T09:54:17.476Z,25.02
2016-08-30T09:55:17.468Z,24.14
2016-08-30T09:56:17.439Z,23.48
2016-08-30T09:57:17.391Z,23.59
2016-08-30T09:58:17.564Z,23.99
2016-08-30T09:59:17.550Z,24.15
2016-08-30T10:00:17.504Z,24.27
2016-08-30T10:01:17.545Z,24.42
2016-08-30T10:02:17.379Z,24.58
2016-08-30T10:03:18.143Z,24.61
2016-08-30T10:04:17.460Z,25.24
2016-08-30T10:05:17.643Z,25.05
2016-08-30T10:06:17.463Z,25.01
2016-08-30T10:07:17.475Z,25.15
2016-08-30T10:08:17.579Z,25.08
2016-08-30T10:09:17.504Z,25.39
2016-08-30T10:10:17.417Z,25.99
2016-08-30T10:11:17.580Z,26.15
2016-08-30T10:12:17.463Z,25.51
2016-08-30T10:13:17.410Z,24.69
2016-08-30T10:14:17.496Z,24.39
2016-08-30T10:15:17.903Z,24.92
2016-08-30T10:16:17.545Z,25.08
2016-08-30T10:17:17.509Z,24.69
2016-08-30T10:18:17.479Z,25.11
2016-08-30T10:19:17.558Z,25.82
2016-08-30T10:20:17.497Z,26.2
2016-08-30T10:21:18.557Z,25.3
2016-08-30T10:22:17.596Z,24.4
2016-08-30T10:23:17.497Z,24.02
2016-08-30T10:24:17.677Z,24.24
2016-08-30T10:25:17.518Z,23.74
2016-08-30T10:26:17.430Z,23.94
2016-08-30T10:27:17.422Z,24.33
2016-08-30T10:28:17.503Z,24.61
2016-08-30T10:29:17.514Z,24.59
2016-08-30T10:30:17.478Z,24.42
2016-08-30T10:31:17.425Z,24.4
2016-08-30T10:32:17.518Z,24.83
2016-08-30T10:33:17.595Z,24.58
2016-08-30T10:34:17.499Z,24.85
2016-08-30T10:35:17.537Z,25.39
2016-08-30T10:36:17.430Z,25.47
2016-08-30T10:37:17.509Z,25.74
2016-08-30T10:38:17.501Z,25.85
2016-08-30T10:39:17.615Z,26.19
2016-08-30T10:40:17.850Z,25.94
2016-08-30T10:41:17.444Z,25.69
2016-08-30T10:42:17.660Z,25.88
2016-08-30T10:43:17.545Z,26.2
2016-08-30T10:44:17.557Z,25.76
2016-08-30T10:45:17.892Z,25.23
2016-08-30T10:46:17.660Z,25.49
2016-08-30T10:47:17.608Z,25.64
2016-08-30T10:48:17.482Z,26.27
2016-08-30T10:49:17.553Z,26.84
2016-08-30T10:50:17.530Z,27.04
2016-08-30T10:51:17.558Z,27.48
2016-08-30T10:52:17.612Z,27.48
2016-08-30T10:53:17.581Z,27.9
2016-08-30T10:54:17.500Z,28.41
2016-08-30T10:55:17.657Z,28.45
2016-08-30T10:56:17.502Z,28.72
2016-08-30T10:57:17.559Z,28.16
2016-08-30T10:58:18.244Z,27.99
2016-08-30T10:59:18.453Z,27.94
2016-08-30T11:00:18.967Z,28.43
2016-08-30T11:01:18.612Z,28.86
2016-08-30T11:02:17.961Z,29.29
2016-08-30T11:03:17.563Z,29.52
2016-08-30T11:04:17.476Z,29.63
2016-08-30T11:05:17.633Z,29.54
2016-08-30T11:06:17.573Z,28.9
2016-08-30T11:07:17.635Z,28.76
2016-08-30T11:08:17.521Z,28.16
2016-08-30T11:09:17.572Z,27.81
2016-08-30T11:10:17.636Z,28.16
2016-08-30T11:11:17.579Z,28.63
2016-08-30T11:12:17.561Z,28.18
2016-08-30T11:13:17.573Z,27.53
2016-08-30T11:14:17.590Z,27.8
2016-08-30T11:15:17.681Z,28.08
2016-08-30T11:16:17.675Z,28.41
2016-08-30T11:17:17.622Z,27.84
2016-08-30T11:18:17.683Z,27.15
2016-08-30T11:19:17.706Z,27.11
2016-08-30T11:20:17.534Z,26.19
2016-08-30T11:21:17.678Z,25.34
2016-08-30T11:22:17.657Z,24.58
2016-08-30T11:23:17.501Z,24.52
2016-08-30T11:24:17.610Z,24.36
2016-08-30T11:25:17.666Z,25.49
2016-08-30T11:26:17.725Z,26.23
2016-08-30T11:27:17.520Z,26.63
2016-08-30T11:28:17.683Z,27.05
2016-08-30T11:29:17.715Z,26.97
2016-08-30T11:30:17.668Z,26.78
2016-08-30T11:31:17.600Z,26.74
2016-08-30T11:32:17.518Z,26.72
2016-08-30T11:33:17.674Z,26.93
2016-08-30T11:34:17.769Z,27.08
2016-08-30T11:35:17.688Z,26.63
2016-08-30T11:36:23.703Z,26.5
2016-08-30T11:37:17.621Z,25.88
2016-08-30T11:38:17.702Z,26.04
2016-08-30T11:39:17.650Z,26.68
2016-08-30T11:40:17.645Z,27.52
2016-08-30T11:41:17.607Z,27.64
2016-08-30T11:42:17.663Z,27.94
2016-08-30T11:43:17.655Z,28.12
2016-08-30T11:44:17.644Z,28.31
2016-08-30T11:45:17.756Z,28.7
2016-08-30T11:46:17.714Z,28.64
2016-08-30T11:47:17.691Z,28.53
2016-08-30T11:48:17.631Z,27.68
2016-08-30T11:49:17.882Z,27.64
2016-08-30T11:50:17.615Z,26.74
2016-08-30T11:51:17.597Z,26.5
2016-08-30T11:52:17.651Z,27
2016-08-30T11:53:17.703Z,26.6
2016-08-30T11:54:17.646Z,25.15
2016-08-30T11:55:17.658Z,25.42
2016-08-30T11:56:17.720Z,25.94
2016-08-30T11:57:17.720Z,25.57
2016-08-30T11:58:17.736Z,25.11
2016-08-30T11:59:17.759Z,25.85
2016-08-30T12:00:17.652Z,26.32
2016-08-30T12:01:17.657Z,26.89
2016-08-30T12:02:17.770Z,27.05
2016-08-30T12:03:17.702Z,27.36
2016-08-30T12:04:17.821Z,27.27
2016-08-30T12:05:17.630Z,27.45
2016-08-30T12:06:17.692Z,27.71
2016-08-30T12:07:17.739Z,27.55
2016-08-30T12:08:17.606Z,27.48
2016-08-30T12:09:17.780Z,27.57
2016-08-30T12:10:17.688Z,27.53
2016-08-30T12:11:17.800Z,27.23
2016-08-30T12:12:17.596Z,26.41
2016-08-30T12:13:18.177Z,26.63
2016-08-30T12:14:17.803Z,27.33
2016-08-30T12:15:17.975Z,27.99
2016-08-30T12:16:17.758Z,28.27
2016-08-30T12:17:18.658Z,28.39
2016-08-30T12:18:17.863Z,28.17
2016-08-30T12:19:17.760Z,28.08
2016-08-30T12:20:17.749Z,28.01
2016-08-30T12:21:17.810Z,27.96
2016-08-30T12:22:17.613Z,28.05
2016-08-30T12:23:17.686Z,27.9
2016-08-30T12:24:17.772Z,28.36
2016-08-30T12:25:17.756Z,28.76
2016-08-30T12:26:17.779Z,28.21
2016-08-30T12:27:17.760Z,28.48
2016-08-30T12:28:17.695Z,28.3
2016-08-30T12:29:17.846Z,28.11
2016-08-30T12:30:17.781Z,27.96
2016-08-30T12:31:17.867Z,27.86
2016-08-30T12:32:17.719Z,28.23
2016-08-30T12:33:17.769Z,27.79
2016-08-30T12:34:17.775Z,28.11
2016-08-30T12:35:17.701Z,28.55
2016-08-30T12:36:17.651Z,29.17
2016-08-30T12:37:17.718Z,29.36
2016-08-30T12:38:17.913Z,29.38
2016-08-30T12:39:17.715Z,29.65
2016-08-30T12:40:17.798Z,29.87
2016-08-30T12:41:17.748Z,29.45
2016-08-30T12:42:17.736Z,29.21
2016-08-30T12:43:17.894Z,29.08
2016-08-30T12:44:18.078Z,29.5
2016-08-30T12:45:17.846Z,29.81
2016-08-30T12:46:17.733Z,29.77
2016-08-30T12:47:17.669Z,30.09
2016-08-30T12:48:17.759Z,30.39
2016-08-30T12:49:17.690Z,30.24
2016-08-30T12:50:17.897Z,29.7
2016-08-30T12:51:17.654Z,29.43
2016-08-30T12:52:17.774Z,29.15
2016-08-30T12:53:17.746Z,29.33
2016-08-30T12:54:17.818Z,29.01
2016-08-30T12:55:17.760Z,28.63
2016-08-30T12:56:17.842Z,27.81
2016-08-30T12:57:17.694Z,28.12
2016-08-30T12:58:17.799Z,28.54
2016-08-30T12:59:17.851Z,28.85